sensor_id;sensor_type;location;lat;lon;timestamp;pressure;altitude;pressure_sealevel;temperature
61977;BMP280;45905;50.570;10.428;2024-02-26T00:00:30;96296.78;;;1.84
61977;BMP280;45905;50.570;10.428;2024-02-26T00:02:57;96286.44;;;1.79
61977;BMP280;45905;50.570;10.428;2024-02-26T00:05:25;96292.88;;;1.82
61977;BMP280;45905;50.570;10.428;2024-02-26T00:07:53;96291.44;;;1.79
61977;BMP280;45905;50.570;10.428;2024-02-26T00:10:21;96294.13;;;1.69
61977;BMP280;45905;50.570;10.428;2024-02-26T00:12:49;96289.63;;;1.55
61977;BMP280;45905;50.570;10.428;2024-02-26T00:15:16;96285.56;;;1.54
61977;BMP280;45905;50.570;10.428;2024-02-26T00:17:44;96295.78;;;1.51
61977;BMP280;45905;50.570;10.428;2024-02-26T00:20:12;96284.53;;;1.47
61977;BMP280;45905;50.570;10.428;2024-02-26T00:22:41;96286.13;;;1.48
61977;BMP280;45905;50.570;10.428;2024-02-26T00:25:09;96284.53;;;1.47
61977;BMP280;45905;50.570;10.428;2024-02-26T00:27:36;96278.78;;;1.47
61977;BMP280;45905;50.570;10.428;2024-02-26T00:30:05;96287.31;;;1.44
61977;BMP280;45905;50.570;10.428;2024-02-26T00:32:32;96278.38;;;1.42
61977;BMP280;45905;50.570;10.428;2024-02-26T00:35:00;96278.69;;;1.39
61977;BMP280;45905;50.570;10.428;2024-02-26T00:37:28;96277.25;;;1.36
61977;BMP280;45905;50.570;10.428;2024-02-26T00:39:56;96274.88;;;1.35
61977;BMP280;45905;50.570;10.428;2024-02-26T00:42:23;96278.81;;;1.37
61977;BMP280;45905;50.570;10.428;2024-02-26T00:44:51;96288.00;;;1.37
61977;BMP280;45905;50.570;10.428;2024-02-26T00:47:19;96266.47;;;1.36
61977;BMP280;45905;50.570;10.428;2024-02-26T00:49:46;96270.66;;;1.35
61977;BMP280;45905;50.570;10.428;2024-02-26T00:52:14;96277.88;;;1.38
61977;BMP280;45905;50.570;10.428;2024-02-26T00:54:41;96275.41;;;1.38
61977;BMP280;45905;50.570;10.428;2024-02-26T00:57:09;96266.34;;;1.37
61977;BMP280;45905;50.570;10.428;2024-02-26T00:59:36;96262.28;;;1.36
61977;BMP280;45905;50.570;10.428;2024-02-26T01:02:04;96257.28;;;1.36
61977;BMP280;45905;50.570;10.428;2024-02-26T01:04:34;96263.19;;;1.35
61977;BMP280;45905;50.570;10.428;2024-02-26T01:07:02;96258.19;;;1.35
61977;BMP280;45905;50.570;10.428;2024-02-26T01:09:31;96252.56;;;1.33
61977;BMP280;45905;50.570;10.428;2024-02-26T01:11:59;96255.75;;;1.26
61977;BMP280;45905;50.570;10.428;2024-02-26T01:14:26;96264.50;;;1.13
61977;BMP280;45905;50.570;10.428;2024-02-26T01:16:54;96254.78;;;1.10
61977;BMP280;45905;50.570;10.428;2024-02-26T01:19:22;96258.72;;;1.13
61977;BMP280;45905;50.570;10.428;2024-02-26T01:21:50;96266.03;;;1.14
61977;BMP280;45905;50.570;10.428;2024-02-26T01:24:17;96257.94;;;1.12
61977;BMP280;45905;50.570;10.428;2024-02-26T01:26:45;96261.34;;;1.11
61977;BMP280;45905;50.570;10.428;2024-02-26T01:29:13;96264.50;;;1.13
61977;BMP280;45905;50.570;10.428;2024-02-26T01:31:41;96262.13;;;1.12
61977;BMP280;45905;50.570;10.428;2024-02-26T01:34:09;96266.03;;;1.14
61977;BMP280;45905;50.570;10.428;2024-02-26T01:36:37;96259.34;;;1.14
61977;BMP280;45905;50.570;10.428;2024-02-26T01:39:04;96263.53;;;1.14
61977;BMP280;45905;50.570;10.428;2024-02-26T01:41:32;96264.31;;;1.14
61977;BMP280;45905;50.570;10.428;2024-02-26T01:43:59;96258.72;;;1.13
61977;BMP280;45905;50.570;10.428;2024-02-26T01:46:30;96259.78;;;1.10
61977;BMP280;45905;50.570;10.428;2024-02-26T01:48:59;96253.88;;;1.11
61977;BMP280;45905;50.570;10.428;2024-02-26T01:51:29;96259.50;;;1.13
61977;BMP280;45905;50.570;10.428;2024-02-26T01:53:59;96257.94;;;1.12
61977;BMP280;45905;50.570;10.428;2024-02-26T01:56:30;96252.94;;;1.12
61977;BMP280;45905;50.570;10.428;2024-02-26T01:58:59;96249.78;;;1.10
61977;BMP280;45905;50.570;10.428;2024-02-26T02:01:30;96247.31;;;1.10
61977;BMP280;45905;50.570;10.428;2024-02-26T02:04:00;96245.06;;;1.07
61977;BMP280;45905;50.570;10.428;2024-02-26T02:06:27;96248.50;;;1.06
61977;BMP280;45905;50.570;10.428;2024-02-26T02:08:56;96250.06;;;1.07
61977;BMP280;45905;50.570;10.428;2024-02-26T02:11:23;96256.75;;;1.07
61977;BMP280;45905;50.570;10.428;2024-02-26T02:13:51;96258.34;;;0.98
61977;BMP280;45905;50.570;10.428;2024-02-26T02:16:19;96249.03;;;1.00
61977;BMP280;45905;50.570;10.428;2024-02-26T02:18:46;96249.03;;;1.00
61977;BMP280;45905;50.570;10.428;2024-02-26T02:21:14;96243.78;;;1.03
61977;BMP280;45905;50.570;10.428;2024-02-26T02:23:41;96249.03;;;1.00
61977;BMP280;45905;50.570;10.428;2024-02-26T02:26:15;96242.47;;;0.99
61977;BMP280;45905;50.570;10.428;2024-02-26T02:28:43;96242.34;;;1.01
61977;BMP280;45905;50.570;10.428;2024-02-26T02:31:10;96250.06;;;1.07
61977;BMP280;45905;50.570;10.428;2024-02-26T02:33:39;96247.44;;;1.09
61977;BMP280;45905;50.570;10.428;2024-02-26T02:36:06;96247.16;;;1.12
61977;BMP280;45905;50.570;10.428;2024-02-26T02:38:37;96252.81;;;1.14
61977;BMP280;45905;50.570;10.428;2024-02-26T02:41:05;96248.59;;;1.14
61977;BMP280;45905;50.570;10.428;2024-02-26T02:43:33;96250.31;;;1.14
61977;BMP280;45905;50.570;10.428;2024-02-26T02:46:00;96261.69;;;1.16
61977;BMP280;45905;50.570;10.428;2024-02-26T02:48:28;96258.28;;;1.17
61977;BMP280;45905;50.570;10.428;2024-02-26T02:50:56;96258.16;;;1.18
61977;BMP280;45905;50.570;10.428;2024-02-26T02:53:23;96240.19;;;1.15
61977;BMP280;45905;50.570;10.428;2024-02-26T02:55:50;96255.94;;;1.15
61977;BMP280;45905;50.570;10.428;2024-02-26T02:58:18;96258.19;;;1.09
61977;BMP280;45905;50.570;10.428;2024-02-26T03:00:46;96258.88;;;1.02
61977;BMP280;45905;50.570;10.428;2024-02-26T03:03:13;96260.59;;;1.01
61977;BMP280;45905;50.570;10.428;2024-02-26T03:05:41;96263.75;;;1.03
61977;BMP280;45905;50.570;10.428;2024-02-26T03:08:09;96248.50;;;1.06
61977;BMP280;45905;50.570;10.428;2024-02-26T03:10:37;96264.75;;;1.10
61977;BMP280;45905;50.570;10.428;2024-02-26T03:13:05;96256.34;;;1.11
61977;BMP280;45905;50.570;10.428;2024-02-26T03:15:34;96251.25;;;1.13
61977;BMP280;45905;50.570;10.428;2024-02-26T03:18:01;96265.13;;;1.15
61977;BMP280;45905;50.570;10.428;2024-02-26T03:20:29;96250.81;;;1.17
61977;BMP280;45905;50.570;10.428;2024-02-26T03:22:57;96246.22;;;1.22
61977;BMP280;45905;50.570;10.428;2024-02-26T03:25:24;96264.28;;;1.24
61977;BMP280;45905;50.570;10.428;2024-02-26T03:27:52;96250.25;;;1.23
61977;BMP280;45905;50.570;10.428;2024-02-26T03:30:20;96264.28;;;1.24
61977;BMP280;45905;50.570;10.428;2024-02-26T03:32:48;96261.00;;;1.23
61977;BMP280;45905;50.570;10.428;2024-02-26T03:35:16;96257.47;;;1.26
61977;BMP280;45905;50.570;10.428;2024-02-26T03:37:46;96247.34;;;1.27
61977;BMP280;45905;50.570;10.428;2024-02-26T03:40:15;96242.09;;;1.30
61977;BMP280;45905;50.570;10.428;2024-02-26T03:42:42;96242.09;;;1.30
61977;BMP280;45905;50.570;10.428;2024-02-26T03:45:10;96235.41;;;1.31
61977;BMP280;45905;50.570;10.428;2024-02-26T03:47:39;96240.22;;;1.32
61977;BMP280;45905;50.570;10.428;2024-02-26T03:50:08;96243.38;;;1.34
61977;BMP280;45905;50.570;10.428;2024-02-26T03:52:35;96239.97;;;1.35
61977;BMP280;45905;50.570;10.428;2024-02-26T03:55:03;96249.28;;;1.33
61977;BMP280;45905;50.570;10.428;2024-02-26T03:57:31;96242.09;;;1.30
61977;BMP280;45905;50.570;10.428;2024-02-26T03:59:59;96242.88;;;1.31
61977;BMP280;45905;50.570;10.428;2024-02-26T04:02:26;96236.03;;;1.33
61977;BMP280;45905;50.570;10.428;2024-02-26T04:04:54;96234.84;;;1.36
61977;BMP280;45905;50.570;10.428;2024-02-26T04:07:22;96241.25;;;1.39
61977;BMP280;45905;50.570;10.428;2024-02-26T04:09:49;96237.97;;;1.38
61977;BMP280;45905;50.570;10.428;2024-02-26T04:12:17;96244.38;;;1.41
61977;BMP280;45905;50.570;10.428;2024-02-26T04:14:46;96242.53;;;1.43
61977;BMP280;45905;50.570;10.428;2024-02-26T04:17:14;96234.91;;;1.44
61977;BMP280;45905;50.570;10.428;2024-02-26T04:19:41;96233.88;;;1.47
61977;BMP280;45905;50.570;10.428;2024-02-26T04:22:09;96239.00;;;1.45
61977;BMP280;45905;50.570;10.428;2024-02-26T04:24:37;96242.75;;;1.49
61977;BMP280;45905;50.570;10.428;2024-02-26T04:27:04;96247.59;;;1.51
61977;BMP280;45905;50.570;10.428;2024-02-26T04:29:32;96245.91;;;1.51
61977;BMP280;45905;50.570;10.428;2024-02-26T04:32:00;96244.06;;;1.53
61977;BMP280;45905;50.570;10.428;2024-02-26T04:34:28;96252.47;;;1.52
61977;BMP280;45905;50.570;10.428;2024-02-26T04:36:56;96244.19;;;1.52
61977;BMP280;45905;50.570;10.428;2024-02-26T04:39:24;96239.34;;;1.50
61977;BMP280;45905;50.570;10.428;2024-02-26T04:41:51;96239.34;;;1.50
61977;BMP280;45905;50.570;10.428;2024-02-26T04:44:19;96227.16;;;1.47
61977;BMP280;45905;50.570;10.428;2024-02-26T04:46:46;96232.28;;;1.46
61977;BMP280;45905;50.570;10.428;2024-02-26T04:49:14;96236.50;;;1.45
61977;BMP280;45905;50.570;10.428;2024-02-26T04:51:42;96230.19;;;1.41
61977;BMP280;45905;50.570;10.428;2024-02-26T04:54:09;96240.47;;;1.38
61977;BMP280;45905;50.570;10.428;2024-02-26T04:56:37;96237.06;;;1.39
61977;BMP280;45905;50.570;10.428;2024-02-26T04:59:05;96248.31;;;1.43
61977;BMP280;45905;50.570;10.428;2024-02-26T05:01:32;96257.88;;;1.48
61977;BMP280;45905;50.570;10.428;2024-02-26T05:04:01;96259.16;;;1.52
61977;BMP280;45905;50.570;10.428;2024-02-26T05:06:30;96264.00;;;1.53
61977;BMP280;45905;50.570;10.428;2024-02-26T05:08:58;96258.25;;;1.52
61977;BMP280;45905;50.570;10.428;2024-02-26T05:11:25;96252.34;;;1.53
61977;BMP280;45905;50.570;10.428;2024-02-26T05:13:53;96237.22;;;1.55
61977;BMP280;45905;50.570;10.428;2024-02-26T05:16:21;96236.94;;;1.58
61977;BMP280;45905;50.570;10.428;2024-02-26T05:18:52;96236.94;;;1.58
61977;BMP280;45905;50.570;10.428;2024-02-26T05:21:19;96233.03;;;1.55
61977;BMP280;45905;50.570;10.428;2024-02-26T05:23:47;96243.00;;;1.55
61977;BMP280;45905;50.570;10.428;2024-02-26T05:26:22;96242.22;;;1.55
61977;BMP280;45905;50.570;10.428;2024-02-26T05:28:50;96235.38;;;1.57
61977;BMP280;45905;50.570;10.428;2024-02-26T05:31:18;96239.28;;;1.59
61977;BMP280;45905;50.570;10.428;2024-02-26T05:33:49;96241.66;;;1.61
61977;BMP280;45905;50.570;10.428;2024-02-26T05:36:21;96249.41;;;1.58
61977;BMP280;45905;50.570;10.428;2024-02-26T05:38:50;96252.28;;;1.63
61977;BMP280;45905;50.570;10.428;2024-02-26T05:41:18;96262.91;;;1.65
61977;BMP280;45905;50.570;10.428;2024-02-26T05:43:50;96262.25;;;1.63
61977;BMP280;45905;50.570;10.428;2024-02-26T05:46:19;96266.59;;;1.61
61977;BMP280;45905;50.570;10.428;2024-02-26T05:48:48;96264.75;;;1.63
61977;BMP280;45905;50.570;10.428;2024-02-26T05:51:17;96263.84;;;1.64
61977;BMP280;45905;50.570;10.428;2024-02-26T05:53:44;96262.53;;;1.60
61977;BMP280;45905;50.570;10.428;2024-02-26T05:56:14;96263.44;;;1.59
61977;BMP280;45905;50.570;10.428;2024-02-26T05:58:42;96265.94;;;1.59
61977;BMP280;45905;50.570;10.428;2024-02-26T06:01:09;96260.81;;;1.60
61977;BMP280;45905;50.570;10.428;2024-02-26T06:03:37;96260.69;;;1.62
61977;BMP280;45905;50.570;10.428;2024-02-26T06:06:05;96264.88;;;1.61
61977;BMP280;45905;50.570;10.428;2024-02-26T06:08:33;96270.78;;;1.60
61977;BMP280;45905;50.570;10.428;2024-02-26T06:11:06;96270.16;;;1.58
61977;BMP280;45905;50.570;10.428;2024-02-26T06:13:37;96271.84;;;1.58
61977;BMP280;45905;50.570;10.428;2024-02-26T06:16:04;96279.19;;;1.59
61977;BMP280;45905;50.570;10.428;2024-02-26T06:18:32;96274.88;;;1.61
61977;BMP280;45905;50.570;10.428;2024-02-26T06:20:59;96269.22;;;1.59
61977;BMP280;45905;50.570;10.428;2024-02-26T06:23:27;96274.88;;;1.61
61977;BMP280;45905;50.570;10.428;2024-02-26T06:25:54;96281.56;;;1.61
61977;BMP280;45905;50.570;10.428;2024-02-26T06:28:22;96283.16;;;1.62
61977;BMP280;45905;50.570;10.428;2024-02-26T06:30:50;96284.72;;;1.63
61977;BMP280;45905;50.570;10.428;2024-02-26T06:33:19;96303.38;;;1.59
61977;BMP280;45905;50.570;10.428;2024-02-26T06:35:47;96315.09;;;1.49
61977;BMP280;45905;50.570;10.428;2024-02-26T06:38:15;96311.97;;;1.47
61977;BMP280;45905;50.570;10.428;2024-02-26T06:40:43;96315.75;;;1.51
61977;BMP280;45905;50.570;10.428;2024-02-26T06:43:11;96310.50;;;1.54
61977;BMP280;45905;50.570;10.428;2024-02-26T06:45:38;96323.63;;;1.56
61977;BMP280;45905;50.570;10.428;2024-02-26T06:48:06;96317.97;;;1.54
61977;BMP280;45905;50.570;10.428;2024-02-26T06:50:34;96330.19;;;1.57
61977;BMP280;45905;50.570;10.428;2024-02-26T06:53:02;96332.38;;;1.60
61977;BMP280;45905;50.570;10.428;2024-02-26T06:55:30;96313.22;;;1.60
61977;BMP280;45905;50.570;10.428;2024-02-26T06:57:57;96310.44;;;1.63
61977;BMP280;45905;50.570;10.428;2024-02-26T07:00:27;96314.38;;;1.66
61977;BMP280;45905;50.570;10.428;2024-02-26T07:02:55;96310.81;;;1.68
61977;BMP280;45905;50.570;10.428;2024-02-26T07:05:22;96322.50;;;1.68
61977;BMP280;45905;50.570;10.428;2024-02-26T07:07:50;96321.50;;;1.61
61977;BMP280;45905;50.570;10.428;2024-02-26T07:10:18;96322.41;;;1.60
61977;BMP280;45905;50.570;10.428;2024-02-26T07:12:45;96334.63;;;1.63
61977;BMP280;45905;50.570;10.428;2024-02-26T07:15:13;96332.00;;;1.64
61977;BMP280;45905;50.570;10.428;2024-02-26T07:17:40;96336.84;;;1.66
61977;BMP280;45905;50.570;10.428;2024-02-26T07:20:15;96345.59;;;1.70
61977;BMP280;45905;50.570;10.428;2024-02-26T07:22:44;96328.16;;;1.70
61977;BMP280;45905;50.570;10.428;2024-02-26T07:25:11;96358.97;;;1.78
61977;BMP280;45905;50.570;10.428;2024-02-26T07:27:41;96359.50;;;1.81
61977;BMP280;45905;50.570;10.428;2024-02-26T07:30:09;96353.84;;;1.79
61977;BMP280;45905;50.570;10.428;2024-02-26T07:32:37;96346.09;;;1.82
61977;BMP280;45905;50.570;10.428;2024-02-26T07:35:05;96357.91;;;1.80
61977;BMP280;45905;50.570;10.428;2024-02-26T07:37:33;96360.03;;;1.75
61977;BMP280;45905;50.570;10.428;2024-02-26T07:40:01;96360.66;;;1.77
61977;BMP280;45905;50.570;10.428;2024-02-26T07:42:30;96356.34;;;1.79
61977;BMP280;45905;50.570;10.428;2024-02-26T07:44:58;96361.69;;;1.84
61977;BMP280;45905;50.570;10.428;2024-02-26T07:47:27;96358.00;;;1.88
61977;BMP280;45905;50.570;10.428;2024-02-26T07:49:54;96354.94;;;1.94
61977;BMP280;45905;50.570;10.428;2024-02-26T07:52:22;96356.63;;;1.93
61977;BMP280;45905;50.570;10.428;2024-02-26T07:54:50;96353.09;;;1.96
61977;BMP280;45905;50.570;10.428;2024-02-26T07:57:17;96357.81;;;1.99
61977;BMP280;45905;50.570;10.428;2024-02-26T07:59:45;96362.22;;;2.05
61977;BMP280;45905;50.570;10.428;2024-02-26T08:02:17;96362.75;;;2.08
61977;BMP280;45905;50.570;10.428;2024-02-26T08:04:45;96361.66;;;2.10
61977;BMP280;45905;50.570;10.428;2024-02-26T08:07:13;96358.25;;;2.11
61977;BMP280;45905;50.570;10.428;2024-02-26T08:09:40;96361.13;;;2.16
61977;BMP280;45905;50.570;10.428;2024-02-26T08:12:08;96361.31;;;2.23
61977;BMP280;45905;50.570;10.428;2024-02-26T08:14:36;96365.63;;;2.30
61977;BMP280;45905;50.570;10.428;2024-02-26T08:17:03;96370.34;;;2.33
61977;BMP280;45905;50.570;10.428;2024-02-26T08:19:31;96366.59;;;2.37
61977;BMP280;45905;50.570;10.428;2024-02-26T08:21:59;96369.63;;;2.40
61977;BMP280;45905;50.570;10.428;2024-02-26T08:24:31;96368.56;;;2.43
61977;BMP280;45905;50.570;10.428;2024-02-26T08:26:59;96380.91;;;2.44
61977;BMP280;45905;50.570;10.428;2024-02-26T08:29:27;96386.69;;;2.45
61977;BMP280;45905;50.570;10.428;2024-02-26T08:31:54;96388.25;;;2.46
61977;BMP280;45905;50.570;10.428;2024-02-26T08:34:22;96382.97;;;2.48
61977;BMP280;45905;50.570;10.428;2024-02-26T08:36:51;96369.56;;;2.49
61977;BMP280;45905;50.570;10.428;2024-02-26T08:39:19;96380.53;;;2.56
61977;BMP280;45905;50.570;10.428;2024-02-26T08:41:46;96379.22;;;2.62
61977;BMP280;45905;50.570;10.428;2024-02-26T08:44:14;96372.84;;;2.67
61977;BMP280;45905;50.570;10.428;2024-02-26T08:46:41;96366.31;;;2.74
61977;BMP280;45905;50.570;10.428;2024-02-26T08:49:09;96363.25;;;2.80
61977;BMP280;45905;50.570;10.428;2024-02-26T08:51:42;96355.81;;;2.87
61977;BMP280;45905;50.570;10.428;2024-02-26T08:54:11;96368.38;;;2.95
61977;BMP280;45905;50.570;10.428;2024-02-26T08:56:39;96360.94;;;3.03
61977;BMP280;45905;50.570;10.428;2024-02-26T08:59:06;96366.63;;;3.13
61977;BMP280;45905;50.570;10.428;2024-02-26T09:01:34;96371.69;;;3.21
61977;BMP280;45905;50.570;10.428;2024-02-26T09:04:02;96362.50;;;3.29
61977;BMP280;45905;50.570;10.428;2024-02-26T09:06:31;96359.25;;;3.36
61977;BMP280;45905;50.570;10.428;2024-02-26T09:08:59;96357.88;;;3.42
61977;BMP280;45905;50.570;10.428;2024-02-26T09:11:28;96361.50;;;3.47
61977;BMP280;45905;50.570;10.428;2024-02-26T09:13:56;96365.28;;;3.51
61977;BMP280;45905;50.570;10.428;2024-02-26T09:16:24;96363.75;;;3.58
61977;BMP280;45905;50.570;10.428;2024-02-26T09:18:52;96364.88;;;3.63
61977;BMP280;45905;50.570;10.428;2024-02-26T09:21:19;96372.41;;;3.71
61977;BMP280;45905;50.570;10.428;2024-02-26T09:23:54;96371.06;;;3.76
61977;BMP280;45905;50.570;10.428;2024-02-26T09:26:21;96372.94;;;3.82
61977;BMP280;45905;50.570;10.428;2024-02-26T09:28:49;96383.91;;;3.89
61977;BMP280;45905;50.570;10.428;2024-02-26T09:31:18;96387.38;;;3.96
61977;BMP280;45905;50.570;10.428;2024-02-26T09:33:46;96376.00;;;4.01
61977;BMP280;45905;50.570;10.428;2024-02-26T09:36:14;96372.72;;;4.08
61977;BMP280;45905;50.570;10.428;2024-02-26T09:38:42;96377.75;;;4.16
61977;BMP280;45905;50.570;10.428;2024-02-26T09:41:31;96383.13;;;4.29
61977;BMP280;45905;50.570;10.428;2024-02-26T09:43:59;96382.81;;;4.39
61977;BMP280;45905;50.570;10.428;2024-02-26T09:46:29;96390.06;;;4.50
61977;BMP280;45905;50.570;10.428;2024-02-26T09:48:57;96389.63;;;4.62
61977;BMP280;45905;50.570;10.428;2024-02-26T09:51:26;96404.34;;;4.73
61977;BMP280;45905;50.570;10.428;2024-02-26T09:53:54;96398.56;;;4.80
61977;BMP280;45905;50.570;10.428;2024-02-26T09:56:22;96397.78;;;4.88
61977;BMP280;45905;50.570;10.428;2024-02-26T09:58:52;96400.13;;;4.97
61977;BMP280;45905;50.570;10.428;2024-02-26T10:01:22;96397.28;;;5.08
61977;BMP280;45905;50.570;10.428;2024-02-26T10:03:57;96405.44;;;5.17
61977;BMP280;45905;50.570;10.428;2024-02-26T10:06:28;96391.00;;;5.27
61977;BMP280;45905;50.570;10.428;2024-02-26T10:08:56;96389.91;;;5.37
61977;BMP280;45905;50.570;10.428;2024-02-26T10:11:27;96396.31;;;5.48
61977;BMP280;45905;50.570;10.428;2024-02-26T10:13:56;96393.47;;;5.58
61977;BMP280;45905;50.570;10.428;2024-02-26T10:16:26;96394.28;;;5.67
61977;BMP280;45905;50.570;10.428;2024-02-26T10:18:54;96383.25;;;5.75
61977;BMP280;45905;50.570;10.428;2024-02-26T10:21:27;96392.19;;;5.86
61977;BMP280;45905;50.570;10.428;2024-02-26T10:23:55;96385.56;;;5.92
61977;BMP280;45905;50.570;10.428;2024-02-26T10:26:23;96398.88;;;6.01
61977;BMP280;45905;50.570;10.428;2024-02-26T10:28:52;96389.56;;;6.09
61977;BMP280;45905;50.570;10.428;2024-02-26T10:31:22;96385.28;;;6.17
61977;BMP280;45905;50.570;10.428;2024-02-26T10:33:51;96385.88;;;6.27
61977;BMP280;45905;50.570;10.428;2024-02-26T10:36:22;96393.84;;;6.38
61977;BMP280;45905;50.570;10.428;2024-02-26T10:38:54;96398.47;;;6.49
61977;BMP280;45905;50.570;10.428;2024-02-26T10:41:23;96399.81;;;6.59
61977;BMP280;45905;50.570;10.428;2024-02-26T10:43:50;96396.78;;;6.71
61977;BMP280;45905;50.570;10.428;2024-02-26T10:46:19;96393.69;;;6.84
61977;BMP280;45905;50.570;10.428;2024-02-26T10:48:51;96397.38;;;6.95
61977;BMP280;45905;50.570;10.428;2024-02-26T10:51:28;96400.91;;;7.08
61977;BMP280;45905;50.570;10.428;2024-02-26T10:53:59;96402.66;;;7.22
61977;BMP280;45905;50.570;10.428;2024-02-26T10:56:29;96399.38;;;7.36
61977;BMP280;45905;50.570;10.428;2024-02-26T10:58:58;96400.22;;;7.50
61977;BMP280;45905;50.570;10.428;2024-02-26T11:01:27;96411.88;;;7.65
61977;BMP280;45905;50.570;10.428;2024-02-26T11:03:57;96404.75;;;7.83
61977;BMP280;45905;50.570;10.428;2024-02-26T11:06:27;96410.88;;;8.02
61977;BMP280;45905;50.570;10.428;2024-02-26T11:08:58;96411.81;;;8.16
61977;BMP280;45905;50.570;10.428;2024-02-26T11:11:26;96408.78;;;8.20
61977;BMP280;45905;50.570;10.428;2024-02-26T11:13:57;96411.28;;;8.34
61977;BMP280;45905;50.570;10.428;2024-02-26T11:16:27;96407.84;;;8.41
61977;BMP280;45905;50.570;10.428;2024-02-26T11:18:57;96404.66;;;8.47
61977;BMP280;45905;50.570;10.428;2024-02-26T11:21:25;96406.28;;;8.55
61977;BMP280;45905;50.570;10.428;2024-02-26T11:24:13;96412.00;;;8.63
61977;BMP280;45905;50.570;10.428;2024-02-26T11:26:55;96410.75;;;8.73
61977;BMP280;45905;50.570;10.428;2024-02-26T11:29:38;96401.50;;;8.80
61977;BMP280;45905;50.570;10.428;2024-02-26T11:32:07;96414.59;;;8.90
61977;BMP280;45905;50.570;10.428;2024-02-26T11:34:35;96411.53;;;8.94
61977;BMP280;45905;50.570;10.428;2024-02-26T11:37:14;96404.63;;;9.02
61977;BMP280;45905;50.570;10.428;2024-02-26T11:39:43;96412.09;;;9.10
61977;BMP280;45905;50.570;10.428;2024-02-26T11:42:16;96414.50;;;9.18
61977;BMP280;45905;50.570;10.428;2024-02-26T11:44:44;96412.19;;;9.23
61977;BMP280;45905;50.570;10.428;2024-02-26T11:47:19;96409.91;;;9.28
61977;BMP280;45905;50.570;10.428;2024-02-26T11:49:47;96408.41;;;9.33
61977;BMP280;45905;50.570;10.428;2024-02-26T11:52:16;96397.34;;;9.34
61977;BMP280;45905;50.570;10.428;2024-02-26T11:54:56;96399.91;;;9.40
61977;BMP280;45905;50.570;10.428;2024-02-26T11:57:39;96392.56;;;9.45
61977;BMP280;45905;50.570;10.428;2024-02-26T12:02:52;96384.69;;;9.61
61977;BMP280;45905;50.570;10.428;2024-02-26T12:05:27;96384.91;;;9.66
61977;BMP280;45905;50.570;10.428;2024-02-26T12:08:05;96381.47;;;9.73
61977;BMP280;45905;50.570;10.428;2024-02-26T12:10:38;96391.44;;;9.81
61977;BMP280;45905;50.570;10.428;2024-02-26T12:13:17;96393.25;;;9.87
61977;BMP280;45905;50.570;10.428;2024-02-26T12:15:56;96386.47;;;9.93
61977;BMP280;45905;50.570;10.428;2024-02-26T12:18:25;96383.97;;;10.00
61977;BMP280;45905;50.570;10.428;2024-02-26T12:21:03;96380.50;;;10.07
61977;BMP280;45905;50.570;10.428;2024-02-26T12:23:32;96378.56;;;10.09
61977;BMP280;45905;50.570;10.428;2024-02-26T12:26:00;96383.09;;;10.13
61977;BMP280;45905;50.570;10.428;2024-02-26T12:28:33;96393.06;;;10.21
61977;BMP280;45905;50.570;10.428;2024-02-26T12:31:01;96397.34;;;10.27
61977;BMP280;45905;50.570;10.428;2024-02-26T12:33:30;96390.34;;;10.29
61977;BMP280;45905;50.570;10.428;2024-02-26T12:35:58;96400.50;;;10.35
61977;BMP280;45905;50.570;10.428;2024-02-26T12:38:27;96405.38;;;10.37
61977;BMP280;45905;50.570;10.428;2024-02-26T12:40:55;96403.44;;;10.39
61977;BMP280;45905;50.570;10.428;2024-02-26T12:43:23;96397.00;;;10.43
61977;BMP280;45905;50.570;10.428;2024-02-26T12:45:50;96400.56;;;10.48
61977;BMP280;45905;50.570;10.428;2024-02-26T12:48:19;96399.38;;;10.50
61977;BMP280;45905;50.570;10.428;2024-02-26T12:50:47;96394.13;;;10.52
61977;BMP280;45905;50.570;10.428;2024-02-26T12:53:15;96395.13;;;10.57
61977;BMP280;45905;50.570;10.428;2024-02-26T12:55:43;96398.66;;;10.63
61977;BMP280;45905;50.570;10.428;2024-02-26T12:58:12;96396.13;;;10.69
61977;BMP280;45905;50.570;10.428;2024-02-26T13:00:40;96399.84;;;10.73
61977;BMP280;45905;50.570;10.428;2024-02-26T13:03:09;96398.09;;;10.80
61977;BMP280;45905;50.570;10.428;2024-02-26T13:05:37;96406.13;;;10.89
61977;BMP280;45905;50.570;10.428;2024-02-26T13:08:06;96395.81;;;10.97
61977;BMP280;45905;50.570;10.428;2024-02-26T13:10:36;96396.22;;;11.07
61977;BMP280;45905;50.570;10.428;2024-02-26T13:13:05;96393.50;;;11.08
61977;BMP280;45905;50.570;10.428;2024-02-26T13:15:32;96399.16;;;11.17
61977;BMP280;45905;50.570;10.428;2024-02-26T13:18:10;96403.44;;;11.23
61977;BMP280;45905;50.570;10.428;2024-02-26T13:20:39;96409.69;;;11.26
61977;BMP280;45905;50.570;10.428;2024-02-26T13:23:13;96411.66;;;11.31
61977;BMP280;45905;50.570;10.428;2024-02-26T13:25:41;96405.44;;;11.33
61977;BMP280;45905;50.570;10.428;2024-02-26T13:28:17;96415.56;;;11.33
61977;BMP280;45905;50.570;10.428;2024-02-26T13:30:54;96416.94;;;11.36
61977;BMP280;45905;50.570;10.428;2024-02-26T13:33:26;96416.34;;;11.40
61977;BMP280;45905;50.570;10.428;2024-02-26T13:35:56;96427.66;;;11.44
61977;BMP280;45905;50.570;10.428;2024-02-26T13:38:24;96424.53;;;11.48
61977;BMP280;45905;50.570;10.428;2024-02-26T13:40:53;96426.69;;;11.51
61977;BMP280;45905;50.570;10.428;2024-02-26T13:43:21;96420.63;;;11.52
61977;BMP280;45905;50.570;10.428;2024-02-26T13:45:49;96428.06;;;11.54
61977;BMP280;45905;50.570;10.428;2024-02-26T13:48:17;96426.88;;;11.56
61977;BMP280;45905;50.570;10.428;2024-02-26T13:50:45;96422.19;;;11.60
61977;BMP280;45905;50.570;10.428;2024-02-26T13:53:13;96421.81;;;11.63
61977;BMP280;45905;50.570;10.428;2024-02-26T13:55:42;96427.44;;;11.64
61977;BMP280;45905;50.570;10.428;2024-02-26T13:58:14;96419.47;;;11.67
61977;BMP280;45905;50.570;10.428;2024-02-26T14:00:43;96428.81;;;11.73
61977;BMP280;45905;50.570;10.428;2024-02-26T14:03:11;96420.63;;;11.78
61977;BMP280;45905;50.570;10.428;2024-02-26T14:05:39;96423.34;;;11.82
61977;BMP280;45905;50.570;10.428;2024-02-26T14:08:11;96421.59;;;11.83
61977;BMP280;45905;50.570;10.428;2024-02-26T14:10:39;96423.16;;;11.84
61977;BMP280;45905;50.570;10.428;2024-02-26T14:13:06;96423.34;;;11.89
61977;BMP280;45905;50.570;10.428;2024-02-26T14:15:34;96428.41;;;11.95
61977;BMP280;45905;50.570;10.428;2024-02-26T14:18:03;96428.78;;;12.05